Herzlich willkommen!

Am freundlichen Bodensee-Flugplatz zwischen Schwarzwald, Rhein und Alpen.

Aktuelles

06.10.2019
Winterpause
NOTAMs Q) LSAS/QFAAP/IV/NBO /A /000/999/4741N00908E A) EDTZ B) 19/12/16 00:00 C) 20/01/30 23:59 E) AD PPR +49 (0) 1727411981.
— Flugleitung EDTZ

Live am Platz

Die Bilder unserer Webcams werden alle 5 Minuten aktualisiert.

Sonnenaufgang:

06:33 UTC / 07:33 Lokal

Sonnenuntergang:

15:44 UTC / 16:44 Lokal

METAR (19.11.2019 12:50 UTC):

EDNY 191150Z VRB01KT 9999 FEW034 04/01 Q1016
VFR

TAF (19.11.2019 12:00 UTC):

TAF EDNY 191100Z 1912/2012 03005KT 9999 BKN025 TEMPO 1912/1916 VRB03KT PROB30 TEMPO 2006/2010 BKN014

Alle Angaben unverbindlich und ohne Gewähr. Zeiten genähert.

Für den Verkehrslandeplatz Konstanz werden keine offiziellen Wetterinformationen ausgegeben. Daher werden zur Orientierung Daten des nahegelegenen Flughafens Friedrichshafen dargestellt.

Flugwetterdaten zur Verfügung gestellt von wippich.aero.